Terminal Aerodrome Forecast
Issued by NWS Greer, SC

Home | Current Version | Previous Version | Text Only | Print | Product List | Glossary On
Versions: 1 2 3 4 5 6 7 8 9 10 11 12 13 14 15 16 17 18 19 20 21 22 23 24 25 26 27 28 29 30 31 32 33 34 35 36 37 38 39 40 41 42 43 44 45
000
FTUS42 KGSP 280105 AAA
TAFCLT
TAF AMD
KCLT 280105Z 2801/2824 06005KT P6SM FEW070 SCT250
     FM280400 08006KT P6SM FEW050 SCT070
     FM280900 04006KT P6SM BKN050
     FM281300 07006KT P6SM FEW050 SCT250=

USA.gov is the U.S. government's official web portal to all federal, state and local government web resources and services.